sensor_id;sensor_type;location;lat;lon;timestamp;P1;durP1;ratioP1;P2;durP2;ratioP2
51495;SDS011;37572;52.094;4.870;2023-03-01T00:02:31;17.75;;;12.27;;
51495;SDS011;37572;52.094;4.870;2023-03-01T00:04:57;17.57;;;10.80;;
51495;SDS011;37572;52.094;4.870;2023-03-01T00:09:47;20.48;;;10.98;;
51495;SDS011;37572;52.094;4.870;2023-03-01T00:14:37;18.93;;;12.77;;
51495;SDS011;37572;52.094;4.870;2023-03-01T00:19:28;18.15;;;10.38;;
51495;SDS011;37572;52.094;4.870;2023-03-01T00:21:53;19.47;;;10.77;;
51495;SDS011;37572;52.094;4.870;2023-03-01T00:26:43;21.45;;;11.85;;
51495;SDS011;37572;52.094;4.870;2023-03-01T00:31:34;21.58;;;12.27;;
51495;SDS011;37572;52.094;4.870;2023-03-01T00:36:25;23.75;;;12.50;;
51495;SDS011;37572;52.094;4.870;2023-03-01T00:38:50;25.60;;;13.13;;
51495;SDS011;37572;52.094;4.870;2023-03-01T00:41:17;26.83;;;14.10;;
51495;SDS011;37572;52.094;4.870;2023-03-01T00:43:43;26.63;;;12.95;;
51495;SDS011;37572;52.094;4.870;2023-03-01T00:48:33;26.83;;;13.10;;
51495;SDS011;37572;52.094;4.870;2023-03-01T00:53:24;24.00;;;14.00;;
51495;SDS011;37572;52.094;4.870;2023-03-01T00:58:14;28.52;;;13.20;;
51495;SDS011;37572;52.094;4.870;2023-03-01T01:03:04;26.55;;;13.13;;
51495;SDS011;37572;52.094;4.870;2023-03-01T01:07:55;26.05;;;13.45;;
51495;SDS011;37572;52.094;4.870;2023-03-01T01:12:46;24.42;;;12.55;;
51495;SDS011;37572;52.094;4.870;2023-03-01T01:15:11;26.53;;;14.13;;
51495;SDS011;37572;52.094;4.870;2023-03-01T01:17:38;28.40;;;14.27;;
51495;SDS011;37572;52.094;4.870;2023-03-01T01:22:29;22.52;;;12.18;;
51495;SDS011;37572;52.094;4.870;2023-03-01T01:27:19;26.58;;;15.55;;
51495;SDS011;37572;52.094;4.870;2023-03-01T01:32:09;27.13;;;13.70;;
51495;SDS011;37572;52.094;4.870;2023-03-01T01:34:34;29.23;;;13.93;;
51495;SDS011;37572;52.094;4.870;2023-03-01T01:37:00;31.97;;;15.03;;
51495;SDS011;37572;52.094;4.870;2023-03-01T01:39:27;30.70;;;15.73;;
51495;SDS011;37572;52.094;4.870;2023-03-01T01:41:52;27.80;;;15.20;;
51495;SDS011;37572;52.094;4.870;2023-03-01T01:46:53;26.17;;;13.67;;
51495;SDS011;37572;52.094;4.870;2023-03-01T01:49:53;30.42;;;14.68;;
51495;SDS011;37572;52.094;4.870;2023-03-01T01:52:27;19.13;;;10.88;;
51495;SDS011;37572;52.094;4.870;2023-03-01T01:57:24;17.17;;;10.50;;
51495;SDS011;37572;52.094;4.870;2023-03-01T01:59:51;20.13;;;11.52;;
51495;SDS011;37572;52.094;4.870;2023-03-01T02:02:17;13.68;;;9.98;;
51495;SDS011;37572;52.094;4.870;2023-03-01T02:04:43;14.48;;;9.43;;
51495;SDS011;37572;52.094;4.870;2023-03-01T02:09:33;14.02;;;9.05;;
51495;SDS011;37572;52.094;4.870;2023-03-01T02:11:59;14.00;;;9.70;;
51495;SDS011;37572;52.094;4.870;2023-03-01T02:14:24;15.07;;;13.15;;
51495;SDS011;37572;52.094;4.870;2023-03-01T02:16:51;15.73;;;10.48;;
51495;SDS011;37572;52.094;4.870;2023-03-01T02:19:30;13.80;;;9.70;;
51495;SDS011;37572;52.094;4.870;2023-03-01T02:22:07;16.52;;;10.48;;
51495;SDS011;37572;52.094;4.870;2023-03-01T02:27:21;14.95;;;9.80;;
51495;SDS011;37572;52.094;4.870;2023-03-01T02:29:49;12.82;;;9.63;;
51495;SDS011;37572;52.094;4.870;2023-03-01T02:32:14;15.17;;;10.10;;
51495;SDS011;37572;52.094;4.870;2023-03-01T02:34:40;15.75;;;11.70;;
51495;SDS011;37572;52.094;4.870;2023-03-01T02:37:08;14.60;;;9.57;;
51495;SDS011;37572;52.094;4.870;2023-03-01T02:39:37;14.00;;;11.27;;
51495;SDS011;37572;52.094;4.870;2023-03-01T02:42:06;11.98;;;8.60;;
51495;SDS011;37572;52.094;4.870;2023-03-01T02:44:32;13.63;;;11.65;;
51495;SDS011;37572;52.094;4.870;2023-03-01T02:46:57;14.30;;;9.77;;
51495;SDS011;37572;52.094;4.870;2023-03-01T02:49:26;11.95;;;9.07;;
51495;SDS011;37572;52.094;4.870;2023-03-01T02:51:56;13.02;;;9.48;;
51495;SDS011;37572;52.094;4.870;2023-03-01T02:54:29;15.00;;;9.35;;
51495;SDS011;37572;52.094;4.870;2023-03-01T02:56:56;12.85;;;9.68;;
51495;SDS011;37572;52.094;4.870;2023-03-01T02:59:22;12.98;;;8.70;;
51495;SDS011;37572;52.094;4.870;2023-03-01T03:01:49;11.35;;;8.75;;
51495;SDS011;37572;52.094;4.870;2023-03-01T03:04:15;11.57;;;9.30;;
51495;SDS011;37572;52.094;4.870;2023-03-01T03:06:44;11.85;;;8.25;;
51495;SDS011;37572;52.094;4.870;2023-03-01T03:09:09;15.05;;;9.60;;
51495;SDS011;37572;52.094;4.870;2023-03-01T03:11:35;13.35;;;8.45;;
51495;SDS011;37572;52.094;4.870;2023-03-01T03:14:01;13.07;;;8.73;;
51495;SDS011;37572;52.094;4.870;2023-03-01T03:16:26;15.40;;;9.30;;
51495;SDS011;37572;52.094;4.870;2023-03-01T03:18:52;16.43;;;9.93;;
51495;SDS011;37572;52.094;4.870;2023-03-01T03:21:17;14.80;;;9.27;;
51495;SDS011;37572;52.094;4.870;2023-03-01T03:23:42;17.10;;;12.60;;
51495;SDS011;37572;52.094;4.870;2023-03-01T03:26:08;15.85;;;9.57;;
51495;SDS011;37572;52.094;4.870;2023-03-01T03:28:34;15.37;;;9.87;;
51495;SDS011;37572;52.094;4.870;2023-03-01T03:30:59;14.85;;;9.70;;
51495;SDS011;37572;52.094;4.870;2023-03-01T03:33:28;20.80;;;13.25;;
51495;SDS011;37572;52.094;4.870;2023-03-01T03:35:54;20.23;;;11.00;;
51495;SDS011;37572;52.094;4.870;2023-03-01T03:38:19;20.00;;;12.43;;
51495;SDS011;37572;52.094;4.870;2023-03-01T03:40:48;19.38;;;11.75;;
51495;SDS011;37572;52.094;4.870;2023-03-01T03:43:17;20.65;;;12.75;;
51495;SDS011;37572;52.094;4.870;2023-03-01T03:45:46;22.13;;;12.30;;
51495;SDS011;37572;52.094;4.870;2023-03-01T03:48:11;17.88;;;11.55;;
51495;SDS011;37572;52.094;4.870;2023-03-01T03:50:37;20.90;;;14.23;;
51495;SDS011;37572;52.094;4.870;2023-03-01T03:53:04;17.92;;;9.82;;
51495;SDS011;37572;52.094;4.870;2023-03-01T03:55:29;19.17;;;10.10;;
51495;SDS011;37572;52.094;4.870;2023-03-01T03:57:57;16.75;;;11.13;;
51495;SDS011;37572;52.094;4.870;2023-03-01T04:00:22;17.20;;;10.65;;
51495;SDS011;37572;52.094;4.870;2023-03-01T04:02:49;16.65;;;9.88;;
51495;SDS011;37572;52.094;4.870;2023-03-01T04:05:15;18.02;;;10.35;;
51495;SDS011;37572;52.094;4.870;2023-03-01T04:07:41;14.88;;;9.85;;
51495;SDS011;37572;52.094;4.870;2023-03-01T04:10:09;14.55;;;10.07;;
51495;SDS011;37572;52.094;4.870;2023-03-01T04:12:34;13.25;;;9.18;;
51495;SDS011;37572;52.094;4.870;2023-03-01T04:15:00;13.60;;;9.17;;
51495;SDS011;37572;52.094;4.870;2023-03-01T04:17:25;14.50;;;9.35;;
51495;SDS011;37572;52.094;4.870;2023-03-01T04:19:50;12.50;;;9.10;;
51495;SDS011;37572;52.094;4.870;2023-03-01T04:22:15;11.93;;;8.70;;
51495;SDS011;37572;52.094;4.870;2023-03-01T04:24:42;10.70;;;7.95;;
51495;SDS011;37572;52.094;4.870;2023-03-01T04:27:07;14.02;;;9.10;;
51495;SDS011;37572;52.094;4.870;2023-03-01T04:29:32;10.40;;;7.53;;
51495;SDS011;37572;52.094;4.870;2023-03-01T04:31:57;10.77;;;7.73;;
51495;SDS011;37572;52.094;4.870;2023-03-01T04:34:23;16.42;;;9.70;;
51495;SDS011;37572;52.094;4.870;2023-03-01T04:36:51;16.38;;;9.25;;
51495;SDS011;37572;52.094;4.870;2023-03-01T04:39:16;14.30;;;9.77;;
51495;SDS011;37572;52.094;4.870;2023-03-01T04:41:42;15.13;;;9.60;;
51495;SDS011;37572;52.094;4.870;2023-03-01T04:44:08;15.10;;;8.90;;
51495;SDS011;37572;52.094;4.870;2023-03-01T04:46:34;16.38;;;9.35;;
51495;SDS011;37572;52.094;4.870;2023-03-01T04:48:59;14.13;;;8.93;;
51495;SDS011;37572;52.094;4.870;2023-03-01T04:51:24;13.27;;;8.77;;
51495;SDS011;37572;52.094;4.870;2023-03-01T04:53:50;13.47;;;9.03;;
51495;SDS011;37572;52.094;4.870;2023-03-01T04:56:15;18.27;;;10.50;;
51495;SDS011;37572;52.094;4.870;2023-03-01T04:58:42;15.18;;;9.55;;
51495;SDS011;37572;52.094;4.870;2023-03-01T05:01:11;17.30;;;10.17;;
51495;SDS011;37572;52.094;4.870;2023-03-01T05:03:40;15.82;;;9.60;;
51495;SDS011;37572;52.094;4.870;2023-03-01T05:06:05;18.08;;;10.63;;
51495;SDS011;37572;52.094;4.870;2023-03-01T05:08:30;19.77;;;12.13;;
51495;SDS011;37572;52.094;4.870;2023-03-01T05:10:59;22.40;;;11.82;;
51495;SDS011;37572;52.094;4.870;2023-03-01T05:13:24;17.52;;;10.55;;
51495;SDS011;37572;52.094;4.870;2023-03-01T05:15:57;16.75;;;10.30;;
51495;SDS011;37572;52.094;4.870;2023-03-01T05:18:23;15.27;;;11.57;;
51495;SDS011;37572;52.094;4.870;2023-03-01T05:20:51;13.95;;;9.05;;
51495;SDS011;37572;52.094;4.870;2023-03-01T05:23:16;12.05;;;9.25;;
51495;SDS011;37572;52.094;4.870;2023-03-01T05:25:43;13.95;;;9.32;;
51495;SDS011;37572;52.094;4.870;2023-03-01T05:28:10;11.07;;;8.68;;
51495;SDS011;37572;52.094;4.870;2023-03-01T05:30:36;12.35;;;9.38;;
51495;SDS011;37572;52.094;4.870;2023-03-01T05:33:01;13.13;;;9.33;;
51495;SDS011;37572;52.094;4.870;2023-03-01T05:35:26;13.97;;;9.67;;
51495;SDS011;37572;52.094;4.870;2023-03-01T05:37:51;14.60;;;9.55;;
51495;SDS011;37572;52.094;4.870;2023-03-01T05:40:18;13.18;;;9.32;;
51495;SDS011;37572;52.094;4.870;2023-03-01T05:42:47;14.82;;;9.90;;
51495;SDS011;37572;52.094;4.870;2023-03-01T05:45:13;14.20;;;9.70;;
51495;SDS011;37572;52.094;4.870;2023-03-01T05:47:40;14.85;;;9.73;;
51495;SDS011;37572;52.094;4.870;2023-03-01T05:50:08;15.27;;;10.45;;
51495;SDS011;37572;52.094;4.870;2023-03-01T05:52:33;15.93;;;10.60;;
51495;SDS011;37572;52.094;4.870;2023-03-01T05:54:59;17.42;;;10.18;;
51495;SDS011;37572;52.094;4.870;2023-03-01T05:57:24;14.47;;;9.33;;
51495;SDS011;37572;52.094;4.870;2023-03-01T05:59:50;10.90;;;8.15;;
51495;SDS011;37572;52.094;4.870;2023-03-01T06:02:15;11.43;;;8.83;;
51495;SDS011;37572;52.094;4.870;2023-03-01T06:04:41;10.67;;;8.00;;
51495;SDS011;37572;52.094;4.870;2023-03-01T06:07:06;9.67;;;8.20;;
51495;SDS011;37572;52.094;4.870;2023-03-01T06:09:31;11.83;;;10.17;;
51495;SDS011;37572;52.094;4.870;2023-03-01T06:11:56;9.20;;;7.67;;
51495;SDS011;37572;52.094;4.870;2023-03-01T06:14:21;9.07;;;7.40;;
51495;SDS011;37572;52.094;4.870;2023-03-01T06:16:47;10.03;;;8.13;;
51495;SDS011;37572;52.094;4.870;2023-03-01T06:19:12;10.23;;;8.27;;
51495;SDS011;37572;52.094;4.870;2023-03-01T06:21:37;12.17;;;10.00;;
51495;SDS011;37572;52.094;4.870;2023-03-01T06:24:02;12.45;;;10.70;;
51495;SDS011;37572;52.094;4.870;2023-03-01T06:26:28;10.73;;;8.10;;
51495;SDS011;37572;52.094;4.870;2023-03-01T06:28:53;12.90;;;9.27;;
51495;SDS011;37572;52.094;4.870;2023-03-01T06:31:18;12.83;;;9.37;;
51495;SDS011;37572;52.094;4.870;2023-03-01T06:33:43;13.23;;;8.97;;
51495;SDS011;37572;52.094;4.870;2023-03-01T06:36:09;15.90;;;12.13;;
51495;SDS011;37572;52.094;4.870;2023-03-01T06:38:35;14.07;;;9.60;;
51495;SDS011;37572;52.094;4.870;2023-03-01T06:41:00;14.75;;;9.95;;
51495;SDS011;37572;52.094;4.870;2023-03-01T06:43:26;18.50;;;10.70;;
51495;SDS011;37572;52.094;4.870;2023-03-01T06:45:51;19.03;;;13.83;;
51495;SDS011;37572;52.094;4.870;2023-03-01T06:48:16;17.33;;;12.63;;
51495;SDS011;37572;52.094;4.870;2023-03-01T06:50:41;20.95;;;12.98;;
51495;SDS011;37572;52.094;4.870;2023-03-01T06:53:07;24.10;;;13.13;;
51495;SDS011;37572;52.094;4.870;2023-03-01T06:55:32;21.37;;;12.60;;
51495;SDS011;37572;52.094;4.870;2023-03-01T06:57:58;22.77;;;12.73;;
51495;SDS011;37572;52.094;4.870;2023-03-01T07:00:23;19.38;;;11.02;;
51495;SDS011;37572;52.094;4.870;2023-03-01T07:02:49;14.93;;;9.82;;
51495;SDS011;37572;52.094;4.870;2023-03-01T07:05:14;13.00;;;9.63;;
51495;SDS011;37572;52.094;4.870;2023-03-01T07:07:39;15.13;;;9.03;;
51495;SDS011;37572;52.094;4.870;2023-03-01T07:10:04;13.60;;;11.57;;
51495;SDS011;37572;52.094;4.870;2023-03-01T07:12:30;15.80;;;10.10;;
51495;SDS011;37572;52.094;4.870;2023-03-01T07:14:55;14.27;;;8.37;;
51495;SDS011;37572;52.094;4.870;2023-03-01T07:17:20;15.87;;;10.57;;
51495;SDS011;37572;52.094;4.870;2023-03-01T07:19:45;14.53;;;10.43;;
51495;SDS011;37572;52.094;4.870;2023-03-01T07:22:10;17.63;;;10.80;;
51495;SDS011;37572;52.094;4.870;2023-03-01T07:24:36;16.73;;;9.87;;
51495;SDS011;37572;52.094;4.870;2023-03-01T07:27:01;18.10;;;11.07;;
51495;SDS011;37572;52.094;4.870;2023-03-01T07:29:26;21.55;;;12.32;;
51495;SDS011;37572;52.094;4.870;2023-03-01T07:31:53;20.15;;;12.68;;
51495;SDS011;37572;52.094;4.870;2023-03-01T07:34:18;19.03;;;14.30;;
51495;SDS011;37572;52.094;4.870;2023-03-01T07:39:10;17.00;;;10.98;;
51495;SDS011;37572;52.094;4.870;2023-03-01T07:41:35;18.63;;;10.55;;
51495;SDS011;37572;52.094;4.870;2023-03-01T07:44:01;14.57;;;10.52;;
51495;SDS011;37572;52.094;4.870;2023-03-01T07:46:26;10.73;;;7.67;;
51495;SDS011;37572;52.094;4.870;2023-03-01T07:48:51;11.93;;;8.57;;
51495;SDS011;37572;52.094;4.870;2023-03-01T07:51:16;11.93;;;8.67;;
51495;SDS011;37572;52.094;4.870;2023-03-01T07:53:42;15.03;;;11.53;;
51495;SDS011;37572;52.094;4.870;2023-03-01T07:56:08;14.17;;;9.80;;
51495;SDS011;37572;52.094;4.870;2023-03-01T07:58:34;15.20;;;9.55;;
51495;SDS011;37572;52.094;4.870;2023-03-01T08:01:03;15.30;;;10.68;;
51495;SDS011;37572;52.094;4.870;2023-03-01T08:03:28;17.55;;;12.02;;
51495;SDS011;37572;52.094;4.870;2023-03-01T08:05:54;16.07;;;11.70;;
51495;SDS011;37572;52.094;4.870;2023-03-01T08:08:19;16.90;;;11.60;;
51495;SDS011;37572;52.094;4.870;2023-03-01T08:10:44;17.37;;;11.87;;
51495;SDS011;37572;52.094;4.870;2023-03-01T08:13:09;18.60;;;11.93;;
51495;SDS011;37572;52.094;4.870;2023-03-01T08:15:34;20.20;;;12.70;;
51495;SDS011;37572;52.094;4.870;2023-03-01T08:17:59;19.33;;;12.73;;
51495;SDS011;37572;52.094;4.870;2023-03-01T08:20:25;20.85;;;13.20;;
51495;SDS011;37572;52.094;4.870;2023-03-01T08:22:50;19.07;;;12.50;;
51495;SDS011;37572;52.094;4.870;2023-03-01T08:25:16;20.50;;;13.07;;
51495;SDS011;37572;52.094;4.870;2023-03-01T08:27:41;21.33;;;14.07;;
51495;SDS011;37572;52.094;4.870;2023-03-01T08:30:06;19.90;;;12.50;;
51495;SDS011;37572;52.094;4.870;2023-03-01T08:32:35;21.42;;;14.65;;
51495;SDS011;37572;52.094;4.870;2023-03-01T08:35:00;20.92;;;12.85;;
51495;SDS011;37572;52.094;4.870;2023-03-01T08:37:26;22.42;;;13.52;;
51495;SDS011;37572;52.094;4.870;2023-03-01T08:39:51;21.30;;;13.83;;
51495;SDS011;37572;52.094;4.870;2023-03-01T08:42:16;20.63;;;12.10;;
51495;SDS011;37572;52.094;4.870;2023-03-01T08:44:41;22.47;;;13.13;;
51495;SDS011;37572;52.094;4.870;2023-03-01T08:47:07;18.73;;;12.03;;
51495;SDS011;37572;52.094;4.870;2023-03-01T08:49:33;17.73;;;10.93;;
51495;SDS011;37572;52.094;4.870;2023-03-01T08:51:58;20.30;;;11.17;;
51495;SDS011;37572;52.094;4.870;2023-03-01T08:54:23;18.88;;;11.27;;
51495;SDS011;37572;52.094;4.870;2023-03-01T08:56:49;18.13;;;11.80;;
51495;SDS011;37572;52.094;4.870;2023-03-01T08:59:15;17.93;;;10.67;;
51495;SDS011;37572;52.094;4.870;2023-03-01T09:01:40;19.02;;;11.70;;
51495;SDS011;37572;52.094;4.870;2023-03-01T09:04:08;19.60;;;12.18;;
51495;SDS011;37572;52.094;4.870;2023-03-01T09:06:33;20.30;;;10.90;;
51495;SDS011;37572;52.094;4.870;2023-03-01T09:08:59;16.92;;;10.13;;
51495;SDS011;37572;52.094;4.870;2023-03-01T09:11:24;19.98;;;10.48;;
51495;SDS011;37572;52.094;4.870;2023-03-01T09:13:49;19.17;;;10.13;;
51495;SDS011;37572;52.094;4.870;2023-03-01T09:16:16;15.97;;;9.60;;
51495;SDS011;37572;52.094;4.870;2023-03-01T09:18:42;17.15;;;10.63;;
51495;SDS011;37572;52.094;4.870;2023-03-01T09:21:17;17.10;;;9.20;;
51495;SDS011;37572;52.094;4.870;2023-03-01T09:23:43;17.42;;;10.40;;
51495;SDS011;37572;52.094;4.870;2023-03-01T09:26:10;16.30;;;9.98;;
51495;SDS011;37572;52.094;4.870;2023-03-01T09:28:36;16.27;;;9.13;;
51495;SDS011;37572;52.094;4.870;2023-03-01T09:31:02;14.75;;;8.57;;
51495;SDS011;37572;52.094;4.870;2023-03-01T09:33:28;12.77;;;7.38;;
51495;SDS011;37572;52.094;4.870;2023-03-01T09:36:00;11.35;;;8.02;;
51495;SDS011;37572;52.094;4.870;2023-03-01T09:38:26;13.45;;;8.60;;
51495;SDS011;37572;52.094;4.870;2023-03-01T09:40:51;11.18;;;8.10;;
51495;SDS011;37572;52.094;4.870;2023-03-01T09:45:48;11.00;;;8.65;;
51495;SDS011;37572;52.094;4.870;2023-03-01T09:48:19;9.25;;;7.97;;
51495;SDS011;37572;52.094;4.870;2023-03-01T09:50:47;11.00;;;6.55;;
51495;SDS011;37572;52.094;4.870;2023-03-01T09:53:20;8.20;;;5.45;;
51495;SDS011;37572;52.094;4.870;2023-03-01T10:00:37;10.27;;;6.03;;
51495;SDS011;37572;52.094;4.870;2023-03-01T10:05:41;10.68;;;6.57;;
51495;SDS011;37572;52.094;4.870;2023-03-01T10:10:54;10.80;;;7.10;;
51495;SDS011;37572;52.094;4.870;2023-03-01T10:13:21;10.87;;;6.43;;
51495;SDS011;37572;52.094;4.870;2023-03-01T10:16:03;10.30;;;5.93;;
51495;SDS011;37572;52.094;4.870;2023-03-01T10:18:30;10.20;;;6.38;;
51495;SDS011;37572;52.094;4.870;2023-03-01T10:21:01;11.05;;;8.50;;
51495;SDS011;37572;52.094;4.870;2023-03-01T10:23:27;12.13;;;6.80;;
51495;SDS011;37572;52.094;4.870;2023-03-01T10:31:05;12.05;;;7.10;;
51495;SDS011;37572;52.094;4.870;2023-03-01T10:33:35;11.50;;;7.03;;
51495;SDS011;37572;52.094;4.870;2023-03-01T10:36:02;9.95;;;6.35;;
51495;SDS011;37572;52.094;4.870;2023-03-01T10:38:27;8.37;;;6.23;;
51495;SDS011;37572;52.094;4.870;2023-03-01T10:40:56;12.75;;;6.40;;
51495;SDS011;37572;52.094;4.870;2023-03-01T10:43:22;9.70;;;6.40;;
51495;SDS011;37572;52.094;4.870;2023-03-01T10:45:49;10.25;;;6.25;;
51495;SDS011;37572;52.094;4.870;2023-03-01T10:48:19;9.60;;;6.10;;
51495;SDS011;37572;52.094;4.870;2023-03-01T10:50:47;9.60;;;8.55;;
51495;SDS011;37572;52.094;4.870;2023-03-01T10:53:32;8.60;;;5.60;;
51495;SDS011;37572;52.094;4.870;2023-03-01T10:56:02;8.20;;;5.28;;
51495;SDS011;37572;52.094;4.870;2023-03-01T10:58:28;8.80;;;5.22;;
51495;SDS011;37572;52.094;4.870;2023-03-01T11:03:32;7.38;;;5.03;;
51495;SDS011;37572;52.094;4.870;2023-03-01T11:08:30;8.07;;;5.93;;
51495;SDS011;37572;52.094;4.870;2023-03-01T11:11:59;7.47;;;4.80;;
51495;SDS011;37572;52.094;4.870;2023-03-01T11:16:15;8.95;;;4.38;;
51495;SDS011;37572;52.094;4.870;2023-03-01T11:18:55;8.57;;;5.63;;
51495;SDS011;37572;52.094;4.870;2023-03-01T11:21:20;7.45;;;4.88;;
51495;SDS011;37572;52.094;4.870;2023-03-01T11:23:45;8.53;;;4.73;;
51495;SDS011;37572;52.094;4.870;2023-03-01T11:26:12;6.88;;;4.50;;
51495;SDS011;37572;52.094;4.870;2023-03-01T11:28:38;7.05;;;4.70;;
51495;SDS011;37572;52.094;4.870;2023-03-01T11:31:06;9.35;;;4.88;;
51495;SDS011;37572;52.094;4.870;2023-03-01T11:36:16;6.90;;;4.93;;
51495;SDS011;37572;52.094;4.870;2023-03-01T11:38:43;6.50;;;4.43;;
51495;SDS011;37572;52.094;4.870;2023-03-01T11:41:15;7.40;;;4.63;;
51495;SDS011;37572;52.094;4.870;2023-03-01T11:48:45;8.13;;;4.13;;
51495;SDS011;37572;52.094;4.870;2023-03-01T11:51:15;5.97;;;3.50;;
51495;SDS011;37572;52.094;4.870;2023-03-01T12:07:00;6.88;;;4.13;;
51495;SDS011;37572;52.094;4.870;2023-03-01T12:29:47;7.57;;;4.32;;
51495;SDS011;37572;52.094;4.870;2023-03-01T12:33:17;7.70;;;4.20;;
51495;SDS011;37572;52.094;4.870;2023-03-01T12:37:54;6.60;;;4.65;;
51495;SDS011;37572;52.094;4.870;2023-03-01T12:42:58;6.40;;;4.37;;
51495;SDS011;37572;52.094;4.870;2023-03-01T12:48:22;6.55;;;4.07;;
51495;SDS011;37572;52.094;4.870;2023-03-01T12:50:50;6.90;;;4.40;;
51495;SDS011;37572;52.094;4.870;2023-03-01T12:55:48;5.45;;;4.20;;
51495;SDS011;37572;52.094;4.870;2023-03-01T13:08:29;5.32;;;4.32;;
51495;SDS011;37572;52.094;4.870;2023-03-01T13:11:02;7.00;;;4.38;;
51495;SDS011;37572;52.094;4.870;2023-03-01T13:13:28;5.60;;;4.55;;
51495;SDS011;37572;52.094;4.870;2023-03-01T13:15:54;6.40;;;4.47;;
51495;SDS011;37572;52.094;4.870;2023-03-01T13:20:51;5.47;;;4.40;;
51495;SDS011;37572;52.094;4.870;2023-03-01T13:30:59;6.13;;;4.32;;
51495;SDS011;37572;52.094;4.870;2023-03-01T13:35:53;7.13;;;5.15;;
51495;SDS011;37572;52.094;4.870;2023-03-01T13:41:03;8.13;;;5.88;;
51495;SDS011;37572;52.094;4.870;2023-03-01T13:43:30;6.82;;;4.40;;
51495;SDS011;37572;52.094;4.870;2023-03-01T13:45:56;6.47;;;4.53;;
51495;SDS011;37572;52.094;4.870;2023-03-01T13:48:23;6.10;;;4.68;;
51495;SDS011;37572;52.094;4.870;2023-03-01T13:50:51;6.45;;;5.05;;
51495;SDS011;37572;52.094;4.870;2023-03-01T13:53:20;8.68;;;5.10;;
51495;SDS011;37572;52.094;4.870;2023-03-01T14:03:47;6.43;;;3.97;;
51495;SDS011;37572;52.094;4.870;2023-03-01T14:06:14;6.23;;;4.07;;
51495;SDS011;37572;52.094;4.870;2023-03-01T14:08:40;8.02;;;5.35;;
51495;SDS011;37572;52.094;4.870;2023-03-01T14:18:33;7.13;;;4.30;;
51495;SDS011;37572;52.094;4.870;2023-03-01T14:21:00;7.22;;;4.25;;
51495;SDS011;37572;52.094;4.870;2023-03-01T14:23:26;6.90;;;4.97;;
51495;SDS011;37572;52.094;4.870;2023-03-01T14:25:53;5.72;;;4.03;;
51495;SDS011;37572;52.094;4.870;2023-03-01T14:30:48;7.20;;;4.53;;
51495;SDS011;37572;52.094;4.870;2023-03-01T14:35:52;6.75;;;3.90;;
51495;SDS011;37572;52.094;4.870;2023-03-01T14:38:21;6.78;;;4.13;;
51495;SDS011;37572;52.094;4.870;2023-03-01T14:40:46;8.15;;;4.35;;
51495;SDS011;37572;52.094;4.870;2023-03-01T14:43:21;6.30;;;3.65;;
51495;SDS011;37572;52.094;4.870;2023-03-01T14:45:48;6.80;;;4.22;;
51495;SDS011;37572;52.094;4.870;2023-03-01T14:48:13;6.25;;;4.60;;
51495;SDS011;37572;52.094;4.870;2023-03-01T14:50:40;6.07;;;4.28;;
51495;SDS011;37572;52.094;4.870;2023-03-01T14:53:06;7.40;;;4.68;;
51495;SDS011;37572;52.094;4.870;2023-03-01T14:55:34;6.18;;;4.22;;
51495;SDS011;37572;52.094;4.870;2023-03-01T14:58:02;8.15;;;5.15;;
51495;SDS011;37572;52.094;4.870;2023-03-01T15:00:28;6.43;;;3.95;;
51495;SDS011;37572;52.094;4.870;2023-03-01T15:02:55;7.05;;;4.38;;
51495;SDS011;37572;52.094;4.870;2023-03-01T15:05:30;6.88;;;4.30;;
51495;SDS011;37572;52.094;4.870;2023-03-01T15:07:57;9.23;;;4.20;;
51495;SDS011;37572;52.094;4.870;2023-03-01T15:10:23;6.35;;;4.30;;
51495;SDS011;37572;52.094;4.870;2023-03-01T15:12:49;6.75;;;4.03;;
51495;SDS011;37572;52.094;4.870;2023-03-01T15:17:48;6.75;;;4.53;;
51495;SDS011;37572;52.094;4.870;2023-03-01T15:20:16;7.70;;;4.32;;
51495;SDS011;37572;52.094;4.870;2023-03-01T15:22:45;8.30;;;5.53;;
51495;SDS011;37572;52.094;4.870;2023-03-01T15:25:16;8.13;;;4.80;;
51495;SDS011;37572;52.094;4.870;2023-03-01T15:27:46;7.18;;;4.63;;
51495;SDS011;37572;52.094;4.870;2023-03-01T15:30:18;7.57;;;4.68;;
51495;SDS011;37572;52.094;4.870;2023-03-01T15:32:45;7.30;;;4.18;;
51495;SDS011;37572;52.094;4.870;2023-03-01T15:37:54;6.80;;;4.35;;
51495;SDS011;37572;52.094;4.870;2023-03-01T15:40:21;6.17;;;3.37;;
51495;SDS011;37572;52.094;4.870;2023-03-01T15:42:49;6.60;;;3.95;;
51495;SDS011;37572;52.094;4.870;2023-03-01T15:47:55;7.60;;;4.90;;
51495;SDS011;37572;52.094;4.870;2023-03-01T15:50:29;7.25;;;4.70;;
51495;SDS011;37572;52.094;4.870;2023-03-01T15:52:55;8.35;;;4.18;;
51495;SDS011;37572;52.094;4.870;2023-03-01T15:57:46;7.03;;;4.17;;
51495;SDS011;37572;52.094;4.870;2023-03-01T16:00:12;7.43;;;4.55;;
51495;SDS011;37572;52.094;4.870;2023-03-01T16:02:38;8.73;;;6.93;;
51495;SDS011;37572;52.094;4.870;2023-03-01T16:05:03;6.88;;;4.13;;
51495;SDS011;37572;52.094;4.870;2023-03-01T16:07:29;7.35;;;4.63;;
51495;SDS011;37572;52.094;4.870;2023-03-01T16:09:56;8.20;;;4.32;;
51495;SDS011;37572;52.094;4.870;2023-03-01T16:12:21;6.10;;;4.17;;
51495;SDS011;37572;52.094;4.870;2023-03-01T16:14:46;6.63;;;4.53;;
51495;SDS011;37572;52.094;4.870;2023-03-01T16:17:13;6.90;;;4.10;;
51495;SDS011;37572;52.094;4.870;2023-03-01T16:19:38;9.27;;;5.23;;
51495;SDS011;37572;52.094;4.870;2023-03-01T16:22:03;6.37;;;4.00;;
51495;SDS011;37572;52.094;4.870;2023-03-01T16:24:29;7.40;;;6.03;;
51495;SDS011;37572;52.094;4.870;2023-03-01T16:26:54;8.23;;;5.68;;
51495;SDS011;37572;52.094;4.870;2023-03-01T16:29:20;6.40;;;4.10;;
51495;SDS011;37572;52.094;4.870;2023-03-01T16:31:45;6.77;;;4.30;;
51495;SDS011;37572;52.094;4.870;2023-03-01T16:34:11;6.88;;;5.18;;
51495;SDS011;37572;52.094;4.870;2023-03-01T16:36:37;10.13;;;5.05;;
51495;SDS011;37572;52.094;4.870;2023-03-01T16:39:02;9.90;;;6.13;;
51495;SDS011;37572;52.094;4.870;2023-03-01T16:41:28;9.45;;;6.50;;
51495;SDS011;37572;52.094;4.870;2023-03-01T16:43:53;9.10;;;5.73;;
51495;SDS011;37572;52.094;4.870;2023-03-01T16:46:19;8.30;;;5.10;;
51495;SDS011;37572;52.094;4.870;2023-03-01T16:48:45;8.55;;;4.97;;
51495;SDS011;37572;52.094;4.870;2023-03-01T16:51:11;7.50;;;4.70;;
51495;SDS011;37572;52.094;4.870;2023-03-01T16:53:36;8.93;;;5.68;;
51495;SDS011;37572;52.094;4.870;2023-03-01T16:56:03;8.63;;;5.63;;
51495;SDS011;37572;52.094;4.870;2023-03-01T16:58:28;10.20;;;8.30;;
51495;SDS011;37572;52.094;4.870;2023-03-01T17:00:54;9.98;;;6.05;;
51495;SDS011;37572;52.094;4.870;2023-03-01T17:03:22;10.63;;;7.03;;
51495;SDS011;37572;52.094;4.870;2023-03-01T17:05:47;10.77;;;7.30;;
51495;SDS011;37572;52.094;4.870;2023-03-01T17:08:12;10.20;;;7.20;;
51495;SDS011;37572;52.094;4.870;2023-03-01T17:10:37;11.93;;;8.77;;
51495;SDS011;37572;52.094;4.870;2023-03-01T17:13:03;10.40;;;7.00;;
51495;SDS011;37572;52.094;4.870;2023-03-01T17:15:28;9.80;;;6.68;;
51495;SDS011;37572;52.094;4.870;2023-03-01T17:17:53;10.63;;;7.10;;
51495;SDS011;37572;52.094;4.870;2023-03-01T17:20:20;10.83;;;6.07;;
51495;SDS011;37572;52.094;4.870;2023-03-01T17:22:45;12.65;;;6.57;;
51495;SDS011;37572;52.094;4.870;2023-03-01T17:25:11;9.30;;;8.20;;
51495;SDS011;37572;52.094;4.870;2023-03-01T17:27:37;9.18;;;5.65;;
51495;SDS011;37572;52.094;4.870;2023-03-01T17:30:04;9.38;;;5.80;;
51495;SDS011;37572;52.094;4.870;2023-03-01T17:32:29;9.45;;;5.60;;
51495;SDS011;37572;52.094;4.870;2023-03-01T17:34:54;9.57;;;6.67;;